New River MCAS /H/ /Mccutcheon Fld/ Airport
KNCA : now visible

Airfield :











YOU CAN JOIN US ON...

 
LOGIN :

Register | Disclaimer

   EN    FR    IT 

 









Legend :    VFR   Marginal VFR   IFR   Intensive IFR   Very Intensive IFR
Visi :
Ceiling :
>= 8 km
>= 3000ft
5 to 8 km
1000 to 3000 ft
1500m to 5 km
500 to 1000 ft
800 to 1500m
200 to 500 ft
< 800m
< 200 ft
Symbols :   Thunderstorms  Fog  Heavy snow  Heavy precipitations  Wind > 20 kt






- Airport Elevation : 26 ft


KNCA - New River MCAS /H/ /Mccutcheon Fld/

CURRENT METAR :
  • 271356Z AUTO 16005KT 10SM BKN016 BKN048 18/17 A3007 RMK AO2 SLP186 T01830172

EXPIRED METARs :
  • 271350Z AUTO 17003KT 10SM FEW004 BKN016 BKN048 18/17 A3008 RMK AO2
  • 271330Z AUTO 00000KT 10SM FEW015 SCT021 BKN048 18/17 A3007 RMK AO2 T01780172
  • 271256Z AUTO 00000KT 6SM BR BKN016 BKN041 BKN060 17/17 A3006 RMK AO2 TSE17B22E50 SLP182 T01720167
  • 271235Z AUTO 00000KT 3SM TS BR BKN045 OVC060 16/16 A3007 RMK AO2 TSE17B22 T01610156
  • 271225Z AUTO 22003KT 2SM TS BR BKN048 BKN065 16/16 A3007 RMK AO2 TSE17B22 T01610156
  • 271219Z AUTO 00000KT 1SM BR BKN048 BKN065 OVC095 16/16 A3006 RMK AO2 TSE17 T01610156
  • 271206Z AUTO 00000KT 1 3/4SM TS BR FEW030 BKN065 OVC100 16/16 A3005 RMK AO2 T01610156
  • 271156Z AUTO 00000KT 4SM TS BR FEW029 SCT070 BKN095 16/16 A3005 RMK AO2 RAE05B22E52 TSB15E34B37 SLP179 P0008 60026 70027 T01610161 10172 20156 53003
  • 271138Z AUTO 14004KT 3SM TSRA BR FEW025 BKN050 OVC070 17/16 A3005 RMK AO2 RAE05B22 TSB15E34B37 P0008 T01670161
  • 271121Z AUTO 34003KT 7SM TS FEW018 BKN050 OVC075 17/16 A3005 RMK AO2 RAE05 TSB15 P0000 T01670156

Expired Forecast.
KZDC FIR / North America



MET'MAP, your aeronautical weather chart ! - Copyright ORBIFLY December 2007 - Disclaimer

ORBIFLY MET'MAP TEAM :

Programming & Development : Alexandra Zaïnal
Concept & original design : Baudouin d'Aumeries
Assistance for programming : Marc-Olivier Méhu
Technical & hardware support : Manuel Goepfert

Contact : metmap@orbifly.com




SOURCES & CREDITS :

   NOAA       Earth
Advisory